Time;durP1;ratioP1;P1;durP2;ratioP2;P2;SDS_P1;SDS_P2;PMS_P1;PMS_P2;Temp;Humidity;BMP_temperature;BMP_pressure;BME280_temperature;BME280_humidity;BME280_pressure;Samples;Min_cycle;Max_cycle;Signal;HPM_P1;HPM_P2
2023/11/22 00:00:05;;;;;;;0.10;0.10;;;;;;;10.74;74.12;102432.94;7358917;19;20014;-62
2023/11/22 00:02:31;;;;;;;0.10;0.10;;;;;;;10.68;73.97;102411.13;7357357;19;20006;-62
2023/11/22 00:04:57;;;;;;;0.10;0.10;;;;;;;10.75;74.30;102413.78;7359296;19;20014;-62
2023/11/22 00:07:23;;;;;;;0.10;0.10;;;;;;;10.65;74.19;102398.94;7362266;19;20044;-61
2023/11/22 00:09:48;;;;;;;0.10;0.10;;;;;;;10.76;73.95;102396.38;7362428;19;20514;-62
2023/11/22 00:12:17;;;;;;;0.10;0.10;;;;;;;10.64;73.95;102371.94;7357126;19;20022;-61
2023/11/22 00:14:43;;;;;;;0.10;0.10;;;;;;;10.82;74.12;102399.00;7360955;19;20002;-62
2023/11/22 00:17:08;;;;;;;0.10;0.10;;;;;;;10.83;74.23;102403.34;7360470;19;20038;-62
2023/11/22 00:19:34;;;;;;;0.10;0.10;;;;;;;10.84;74.18;102389.41;7360329;19;20003;-62
2023/11/22 00:21:59;;;;;;;0.10;0.10;;;;;;;10.85;74.54;102391.19;7360309;19;20014;-62
2023/11/22 00:24:25;;;;;;;0.10;0.10;;;;;;;10.91;74.29;102396.41;7367126;19;20017;-62
2023/11/22 00:26:50;;;;;;;0.10;0.10;;;;;;;10.83;74.39;102372.00;7357620;19;20017;-61
2023/11/22 00:29:16;;;;;;;0.08;0.08;;;;;;;10.95;74.32;102395.56;7354539;19;19999;-61
2023/11/22 00:31:42;;;;;;;0.10;0.10;;;;;;;10.88;74.41;102371.13;7353086;19;20003;-61
2023/11/22 00:34:08;;;;;;;0.10;0.10;;;;;;;11.00;74.36;102375.53;7365764;19;20633;-62
2023/11/22 00:36:34;;;;;;;0.10;0.10;;;;;;;11.00;73.94;102365.09;7355932;19;20002;-62
2023/11/22 00:38:59;;;;;;;0.10;0.10;;;;;;;11.04;74.50;102356.34;7361146;19;20093;-61
2023/11/22 00:41:30;;;;;;;0.10;0.10;;;;;;;11.08;74.38;102352.88;7351093;19;20466;-62
2023/11/22 00:43:55;;;;;;;0.10;0.10;;;;;;;11.08;74.04;102358.09;7358188;19;20014;-62
2023/11/22 00:46:21;;;;;;;0.10;0.10;;;;;;;11.06;74.06;102359.88;7358949;19;20042;-61
2023/11/22 00:48:46;;;;;;;0.10;0.10;;;;;;;11.12;74.03;102370.31;7354677;19;20010;-62
2023/11/22 00:51:12;;;;;;;0.10;0.10;;;;;;;11.12;74.17;102349.41;7360981;19;20007;-62
2023/11/22 00:53:38;;;;;;;0.10;0.10;;;;;;;11.15;74.12;102352.03;7352648;19;20014;-61
2023/11/22 00:56:06;;;;;;;0.10;0.10;;;;;;;11.19;74.29;102345.06;7359492;19;20110;-62
2023/11/22 00:58:32;;;;;;;0.10;0.10;;;;;;;11.18;74.49;102344.19;7354992;19;20067;-62
2023/11/22 01:00:58;;;;;;;0.00;0.00;;;;;;;11.11;74.25;102341.56;7360607;19;20015;-62
2023/11/22 01:03:23;;;;;;;0.10;0.10;;;;;;;11.24;74.14;102355.50;7365659;19;20010;-62
2023/11/22 01:05:48;;;;;;;0.08;0.08;;;;;;;11.25;74.46;102349.41;7371314;19;20006;-62
2023/11/22 01:08:14;;;;;;;0.10;0.10;;;;;;;11.28;74.35;102344.19;7363430;19;20510;-61
2023/11/22 01:10:39;;;;;;;0.00;0.00;;;;;;;11.18;74.31;102323.25;7363615;19;20003;-61
2023/11/22 01:13:05;;;;;;;0.10;0.10;;;;;;;11.31;74.01;102354.66;7363528;19;20010;-62
2023/11/22 01:15:30;;;;;;;0.00;0.00;;;;;;;11.30;74.36;102366.84;7361439;19;20010;-61
2023/11/22 01:17:56;;;;;;;0.10;0.10;;;;;;;11.30;74.26;102374.69;7364609;19;20022;-61
2023/11/22 01:20:23;;;;;;;0.00;0.00;;;;;;;11.36;74.53;102386.94;7363746;19;20003;-61
2023/11/22 01:22:48;;;;;;;0.10;0.10;;;;;;;11.29;74.14;102369.47;7363053;19;20666;-63
2023/11/22 01:25:14;;;;;;;0.10;0.10;;;;;;;11.38;74.30;102367.75;7364407;19;20007;-61
2023/11/22 01:27:39;;;;;;;0.00;0.00;;;;;;;11.33;74.12;102359.00;7360985;19;20014;-61
2023/11/22 01:30:07;;;;;;;0.10;0.10;;;;;;;11.41;74.40;102372.97;7362123;19;20003;-62
2023/11/22 01:32:33;;;;;;;0.10;0.10;;;;;;;11.42;74.05;102373.84;7363019;19;20561;-61
2023/11/22 01:35:00;;;;;;;0.10;0.10;;;;;;;11.31;73.98;102357.28;7371135;19;20018;-62
2023/11/22 01:37:25;;;;;;;0.00;0.00;;;;;;;11.42;73.95;102371.22;7367596;19;20018;-62
2023/11/22 01:39:50;;;;;;;0.10;0.10;;;;;;;11.36;74.47;102352.94;7366297;19;20050;-62
2023/11/22 01:42:16;;;;;;;0.10;0.10;;;;;;;11.46;74.44;102364.28;7351542;19;20361;-62
2023/11/22 01:44:41;;;;;;;0.10;0.10;;;;;;;11.45;74.45;102366.00;7363780;19;20445;-62
2023/11/22 01:47:08;;;;;;;0.08;0.08;;;;;;;11.32;74.31;102332.88;7354845;19;20023;-62
2023/11/22 01:49:35;;;;;;;0.10;0.10;;;;;;;11.48;74.22;102342.47;7364842;19;20480;-60
2023/11/22 01:52:03;;;;;;;0.10;0.10;;;;;;;11.45;74.18;102339.81;7362937;19;20006;-62
2023/11/22 01:54:30;;;;;;;0.10;0.10;;;;;;;11.42;74.12;102339.84;7366912;19;20007;-61
2023/11/22 01:56:55;;;;;;;0.10;0.10;;;;;;;11.48;74.33;102334.59;7371423;19;20006;-62
2023/11/22 01:59:21;;;;;;;0.17;0.17;;;;;;;11.48;74.64;102324.16;7353050;19;20013;-62
2023/11/22 02:01:49;;;;;;;0.10;0.10;;;;;;;11.48;74.30;102303.22;7363129;19;20453;-61
2023/11/22 02:04:14;;;;;;;0.10;0.10;;;;;;;11.44;74.63;102291.00;7363758;19;20007;-61
2023/11/22 02:06:40;;;;;;;0.10;0.10;;;;;;;11.36;74.48;102270.09;7359920;19;20010;-62
2023/11/22 02:09:06;;;;;;;0.10;0.10;;;;;;;11.40;74.32;102287.53;7358073;19;20011;-62
2023/11/22 02:11:33;;;;;;;0.10;0.10;;;;;;;11.32;74.69;102267.50;7360103;19;20015;-62
2023/11/22 02:13:58;;;;;;;0.10;0.10;;;;;;;11.45;74.79;102284.91;7363234;19;20010;-62
2023/11/22 02:16:23;;;;;;;0.10;0.10;;;;;;;11.45;75.01;102274.44;7361324;19;20359;-62
2023/11/22 02:18:49;;;;;;;0.00;0.00;;;;;;;11.45;74.93;102274.44;7363754;19;20006;-61
2023/11/22 02:21:17;;;;;;;0.10;0.10;;;;;;;11.46;75.10;102275.34;7367548;19;20024;-62
2023/11/22 02:23:42;;;;;;;0.10;0.10;;;;;;;11.46;74.79;102276.19;7364556;19;20007;-62
2023/11/22 02:26:08;;;;;;;0.10;0.10;;;;;;;11.48;74.87;102274.44;7366587;19;20845;-62
2023/11/22 02:28:33;;;;;;;0.10;0.10;;;;;;;11.49;75.05;102285.78;7361954;19;20025;-62
2023/11/22 02:30:58;;;;;;;0.10;0.10;;;;;;;11.49;75.00;102270.06;7362611;19;20010;-62
2023/11/22 02:33:24;;;;;;;0.20;0.20;;;;;;;11.43;75.00;102247.41;7359183;19;20020;-62
2023/11/22 02:35:50;;;;;;;0.10;0.10;;;;;;;11.40;74.96;102231.72;7362336;19;20018;-62
2023/11/22 02:38:17;;;;;;;0.10;0.10;;;;;;;11.50;75.17;102232.56;7362212;19;20010;-62
2023/11/22 02:40:43;;;;;;;0.10;0.10;;;;;;;11.52;75.19;102250.03;7351445;19;21632;-62
2023/11/22 02:43:09;;;;;;;0.10;0.10;;;;;;;11.55;75.14;102236.03;7363510;19;20019;-61
2023/11/22 02:45:34;;;;;;;0.10;0.10;;;;;;;11.55;74.88;102244.75;7363528;19;20029;-61
2023/11/22 02:48:01;;;;;;;0.10;0.10;;;;;;;11.57;75.03;102253.50;7365305;19;20026;-62
2023/11/22 02:50:27;;;;;;;0.10;0.10;;;;;;;11.43;75.12;102229.09;7360292;19;20014;-62
2023/11/22 02:52:53;;;;;;;0.15;0.15;;;;;;;11.58;75.02;102255.25;7363472;19;20014;-62
2023/11/22 02:55:19;;;;;;;0.10;0.10;;;;;;;11.49;75.14;102241.31;7359938;19;20343;-62
2023/11/22 02:57:45;;;;;;;0.10;0.10;;;;;;;11.52;74.67;102228.22;7361696;19;20027;-61
2023/11/22 03:00:14;;;;;;;0.10;0.10;;;;;;;11.62;75.26;102245.66;7361738;19;20014;-62
2023/11/22 03:02:41;;;;;;;0.10;0.10;;;;;;;11.59;75.21;102225.56;7367654;19;20018;-62
2023/11/22 03:05:10;;;;;;;0.10;0.10;;;;;;;11.64;75.31;102259.59;7356518;19;19994;-62
2023/11/22 03:07:37;;;;;;;0.10;0.10;;;;;;;11.64;75.11;102255.22;7366115;19;20020;-62
2023/11/22 03:10:04;;;;;;;0.10;0.10;;;;;;;11.66;75.11;102237.78;7360747;19;20498;-61
2023/11/22 03:12:30;;;;;;;0.10;0.10;;;;;;;11.68;75.24;102235.16;7357481;19;20011;-61
2023/11/22 03:15:00;;;;;;;0.10;0.10;;;;;;;11.68;75.45;102245.63;7364409;19;20000;-62
2023/11/22 03:17:27;;;;;;;0.10;0.10;;;;;;;11.68;75.50;102251.72;7365205;19;20648;-62
2023/11/22 03:19:53;;;;;;;0.10;0.10;;;;;;;11.72;74.95;102256.97;7362419;19;20557;-62
2023/11/22 03:22:19;;;;;;;0.08;0.08;;;;;;;11.72;75.38;102236.03;7364353;19;20004;-62
2023/11/22 03:24:45;;;;;;;0.10;0.10;;;;;;;11.74;75.24;102281.38;7358129;19;20025;-62
2023/11/22 03:27:10;;;;;;;0.10;0.10;;;;;;;11.74;75.04;102297.94;7364974;19;20003;-62
2023/11/22 03:29:35;;;;;;;0.10;0.10;;;;;;;11.73;75.25;102295.34;7356593;19;20491;-61
2023/11/22 03:32:01;;;;;;;0.10;0.10;;;;;;;11.77;75.11;102303.19;7362150;19;20015;-62
2023/11/22 03:34:26;;;;;;;0.10;0.10;;;;;;;11.76;75.31;102301.44;7371025;19;20021;-62
2023/11/22 03:36:52;;;;;;;0.10;0.10;;;;;;;11.80;75.26;102270.88;7364914;19;20464;-62
2023/11/22 03:39:17;;;;;;;0.20;0.20;;;;;;;11.80;75.21;102247.31;7360489;19;20041;-60
2023/11/22 03:41:43;;;;;;;0.10;0.10;;;;;;;11.82;75.52;102269.19;7359374;19;20026;-62
2023/11/22 03:44:09;;;;;;;0.10;0.10;;;;;;;11.82;75.57;102271.81;7358739;19;20896;-62
2023/11/22 03:46:38;;;;;;;0.00;0.00;;;;;;;11.83;75.11;102281.38;7362019;19;20320;-62
2023/11/22 03:49:04;;;;;;;0.10;0.10;;;;;;;11.85;74.93;102269.16;7364100;19;20719;-62
2023/11/22 03:51:30;;;;;;;0.10;0.10;;;;;;;11.81;75.08;102252.59;7360677;19;20018;-61
2023/11/22 03:53:55;;;;;;;0.10;0.10;;;;;;;11.79;75.46;102242.97;7364278;19;20006;-62
2023/11/22 03:56:21;;;;;;;0.10;0.10;;;;;;;11.77;75.70;102239.50;7363427;19;20009;-62
2023/11/22 03:58:48;;;;;;;0.10;0.10;;;;;;;11.76;75.55;102232.50;7361988;19;20007;-60
2023/11/22 04:01:13;;;;;;;0.10;0.10;;;;;;;11.69;75.45;102227.28;7363646;19;20541;-62
2023/11/22 04:03:40;;;;;;;0.10;0.10;;;;;;;11.70;76.03;102236.00;7362922;19;20017;-61
2023/11/22 04:06:05;;;;;;;0.10;0.10;;;;;;;11.68;76.02;102228.19;7363120;19;20022;-62
2023/11/22 04:08:31;;;;;;;0.10;0.10;;;;;;;11.66;75.86;102243.03;7363237;19;20715;-62
2023/11/22 04:10:56;;;;;;;0.10;0.10;;;;;;;11.61;76.07;102244.78;7355784;19;20014;-62
2023/11/22 04:13:24;;;;;;;0.00;0.00;;;;;;;11.64;76.18;102249.13;7362457;19;20013;-61
2023/11/22 04:15:50;;;;;;;0.10;0.10;;;;;;;11.63;75.93;102243.00;7364693;19;20014;-62
2023/11/22 04:18:15;;;;;;;0.10;0.10;;;;;;;11.64;76.39;102255.22;7336560;19;20031;-62
2023/11/22 04:20:41;;;;;;;0.10;0.10;;;;;;;11.59;76.20;102251.75;7361088;19;20018;-62
2023/11/22 04:23:10;;;;;;;0.10;0.10;;;;;;;11.52;76.16;102242.19;7362786;19;20504;-62
2023/11/22 04:25:36;;;;;;;0.10;0.10;;;;;;;11.56;76.52;102240.44;7361406;19;20054;-62
2023/11/22 04:28:02;;;;;;;0.10;0.10;;;;;;;11.46;76.47;102234.34;7366880;19;20022;-62
2023/11/22 04:30:27;;;;;;;0.10;0.10;;;;;;;11.24;76.35;102201.22;7360601;19;20028;-62
2023/11/22 04:32:53;;;;;;;0.10;0.10;;;;;;;11.66;76.53;102269.19;7361576;19;20078;-62
2023/11/22 04:35:18;;;;;;;0.10;0.10;;;;;;;11.60;76.55;102245.63;7365579;19;20015;-62
2023/11/22 04:37:43;;;;;;;0.08;0.08;;;;;;;11.64;76.34;102229.06;7368457;19;20035;-62
2023/11/22 04:40:11;;;;;;;0.08;0.08;;;;;;;11.67;76.65;102236.91;7361383;19;20070;-62
2023/11/22 04:42:37;;;;;;;0.10;0.10;;;;;;;11.66;76.16;102227.31;7372201;19;20002;-62
2023/11/22 04:45:03;;;;;;;0.10;0.10;;;;;;;11.70;76.60;102215.94;7360681;19;20020;-62
2023/11/22 04:47:29;;;;;;;0.10;0.10;;;;;;;11.72;76.63;102225.56;7370780;19;20024;-62
2023/11/22 04:49:54;;;;;;;0.10;0.10;;;;;;;11.57;76.58;102203.78;7367579;19;20010;-62
2023/11/22 04:52:20;;;;;;;0.10;0.10;;;;;;;11.69;76.44;102210.72;7369224;19;20472;-62
2023/11/22 04:54:45;;;;;;;0.10;0.10;;;;;;;11.75;76.90;102217.69;7361250;19;20041;-62
2023/11/22 04:57:10;;;;;;;0.10;0.10;;;;;;;11.60;76.85;102222.06;7369785;19;20019;-61
2023/11/22 04:59:36;;;;;;;0.10;0.10;;;;;;;11.76;77.01;102211.56;7368327;19;20011;-61
2023/11/22 05:02:01;;;;;;;0.10;0.10;;;;;;;11.62;76.54;102183.72;7368135;19;20013;-62
2023/11/22 05:04:27;;;;;;;0.10;0.10;;;;;;;11.60;76.59;102161.03;7369607;19;20010;-62
2023/11/22 05:06:53;;;;;;;0.10;0.10;;;;;;;11.80;76.71;102197.59;7365965;19;20006;-62
2023/11/22 05:09:19;;;;;;;0.10;0.10;;;;;;;11.80;76.94;102197.59;7363788;19;20018;-62
2023/11/22 05:11:45;;;;;;;0.10;0.10;;;;;;;11.82;76.72;102190.66;7368683;19;20013;-61
2023/11/22 05:14:10;;;;;;;0.00;0.00;;;;;;;11.83;76.64;102197.63;7371431;19;20446;-62
2023/11/22 05:16:36;;;;;;;0.10;0.10;;;;;;;11.83;76.64;102193.25;7365772;19;20034;-62
2023/11/22 05:19:01;;;;;;;0.10;0.10;;;;;;;11.84;76.72;102199.38;7365667;19;20035;-62
2023/11/22 05:21:27;;;;;;;0.10;0.10;;;;;;;11.82;77.02;102206.38;7370810;19;20591;-61
2023/11/22 05:23:54;;;;;;;0.10;0.10;;;;;;;11.66;76.91;102180.22;7352416;19;20054;-62
2023/11/22 05:26:20;;;;;;;0.10;0.10;;;;;;;11.87;76.97;102220.31;7372036;19;20324;-62
2023/11/22 05:28:47;;;;;;;0.10;0.10;;;;;;;11.87;76.89;102220.31;7360290;19;20615;-62
2023/11/22 05:31:13;;;;;;;0.10;0.10;;;;;;;11.88;76.73;102222.03;7367204;19;20030;-62
2023/11/22 05:33:39;;;;;;;0.13;0.13;;;;;;;11.88;76.74;102222.03;7359486;19;20018;-62
2023/11/22 05:36:05;;;;;;;0.10;0.10;;;;;;;11.80;76.74;102232.50;7366919;19;20018;-62
2023/11/22 05:38:33;;;;;;;0.10;0.10;;;;;;;11.85;77.16;102253.44;7370012;19;20024;-61
2023/11/22 05:40:58;;;;;;;;;;;;;;;11.95;76.88;102260.41;7376078;19;20042;-62
2023/11/22 05:43:26;;;;;;;0.10;0.10;;;;;;;11.91;76.51;102259.56;7364649;19;19977;-62
2023/11/22 05:45:54;;;;;;;0.10;0.10;;;;;;;11.94;76.47;102237.72;7369272;19;20534;-62
2023/11/22 05:48:20;;;;;;;0.10;0.10;;;;;;;11.83;76.84;102201.13;7362501;19;20006;-62
2023/11/22 05:50:46;;;;;;;0.10;0.10;;;;;;;11.84;76.52;102204.59;7365771;19;20608;-62
2023/11/22 05:53:12;;;;;;;0.10;0.10;;;;;;;11.93;76.57;102225.50;7373007;19;20074;-62
2023/11/22 05:55:40;;;;;;;0.10;0.10;;;;;;;11.90;77.02;102215.91;7364623;19;20808;-62
2023/11/22 05:58:06;;;;;;;0.20;0.20;;;;;;;11.95;76.95;102219.38;7365642;19;20010;-62
2023/11/22 06:00:31;;;;;;;0.10;0.10;;;;;;;11.96;76.90;102220.25;7363826;19;20018;-61
2023/11/22 06:02:57;;;;;;;0.10;0.10;;;;;;;11.94;76.90;102206.31;7366883;19;20041;-62
2023/11/22 06:05:22;;;;;;;0.10;0.10;;;;;;;12.00;77.16;102201.03;7363830;19;20497;-61
2023/11/22 06:07:47;;;;;;;0.10;0.10;;;;;;;12.03;76.80;102215.88;7362059;19;20029;-62
2023/11/22 06:10:14;;;;;;;0.10;0.10;;;;;;;11.97;77.15;102198.44;7365585;19;20470;-62
2023/11/22 06:12:40;;;;;;;;;;;;;;;11.98;76.75;102197.56;7367853;19;20029;-62
2023/11/22 06:15:07;;;;;;;0.10;0.10;;;;;;;12.01;76.57;102217.63;7355273;19;19922;-62
2023/11/22 06:17:33;;;;;;;0.10;0.10;;;;;;;12.08;76.77;102228.06;7366901;19;20425;-62
2023/11/22 06:19:58;;;;;;;0.20;0.20;;;;;;;11.97;77.03;102216.78;7366491;19;20608;-62
2023/11/22 06:22:23;;;;;;;0.15;0.15;;;;;;;11.98;76.68;102213.28;7360168;19;20037;-62
2023/11/22 06:24:49;;;;;;;0.10;0.10;;;;;;;11.90;76.76;102191.47;7367021;19;20015;-62
2023/11/22 06:27:15;;;;;;;0.10;0.10;;;;;;;12.08;77.24;102225.44;7358754;19;20010;-61
2023/11/22 06:29:43;;;;;;;0.10;0.10;;;;;;;11.96;77.38;102209.78;7361388;19;20022;-62
2023/11/22 06:32:09;;;;;;;0.10;0.10;;;;;;;12.10;77.20;102228.06;7367826;19;20467;-62
2023/11/22 06:34:36;;;;;;;0.10;0.10;;;;;;;12.10;77.51;102235.91;7365958;19;20027;-62
2023/11/22 06:37:01;;;;;;;0.10;0.10;;;;;;;12.00;77.04;102208.03;7364871;19;20621;-61
2023/11/22 06:39:26;;;;;;;0.10;0.10;;;;;;;12.13;77.12;102242.00;7368401;19;20010;-62
2023/11/22 06:41:52;;;;;;;0.10;0.10;;;;;;;12.05;77.16;102220.22;7357173;19;20053;-62
2023/11/22 06:44:18;;;;;;;0.10;0.10;;;;;;;12.17;77.03;102245.50;7364498;19;20082;-61
2023/11/22 06:46:44;;;;;;;0.10;0.10;;;;;;;12.18;77.31;102232.38;7360452;19;20006;-62
2023/11/22 06:49:09;;;;;;;0.10;0.10;;;;;;;12.18;77.25;102232.38;7365643;19;20533;-62
2023/11/22 06:51:34;;;;;;;0.10;0.10;;;;;;;12.21;77.29;102236.72;7367422;19;20011;-61
2023/11/22 06:54:00;;;;;;;0.10;0.10;;;;;;;12.20;77.33;102228.00;7360101;19;20033;-60
2023/11/22 06:56:25;;;;;;;0.10;0.10;;;;;;;12.23;77.32;102221.03;7363255;19;20045;-62
2023/11/22 06:58:51;;;;;;;0.20;0.20;;;;;;;12.09;77.21;102211.47;7357001;19;20010;-62
2023/11/22 07:01:16;;;;;;;0.10;0.10;;;;;;;12.12;77.38;102211.47;7369860;19;20202;-61
2023/11/22 07:03:42;;;;;;;0.10;0.10;;;;;;;12.27;76.91;102238.47;7361239;19;20103;-62
2023/11/22 07:06:07;;;;;;;0.10;0.10;;;;;;;12.26;77.08;102255.91;7364967;19;20015;-61
2023/11/22 07:08:34;;;;;;;0.10;0.10;;;;;;;12.28;77.20;102245.44;7363593;19;20006;-62
2023/11/22 07:11:00;;;;;;;0.10;0.10;;;;;;;12.29;77.35;102249.78;7367075;19;20031;-62
2023/11/22 07:13:26;;;;;;;0.10;0.10;;;;;;;12.25;77.15;102246.31;7365335;19;20839;-62
2023/11/22 07:15:53;;;;;;;0.10;0.10;;;;;;;12.25;76.91;102240.19;7363045;19;20104;-62
2023/11/22 07:18:19;;;;;;;0.10;0.10;;;;;;;12.31;77.31;102250.63;7366624;19;20011;-62
2023/11/22 07:20:44;;;;;;;0.10;0.10;;;;;;;12.31;76.99;102258.50;7352279;19;20462;-62
2023/11/22 07:23:13;;;;;;;0.10;0.10;;;;;;;12.33;76.83;102254.16;7364751;19;20010;-62
2023/11/22 07:25:39;;;;;;;0.10;0.10;;;;;;;12.33;76.97;102248.91;7340625;19;20017;-61
2023/11/22 07:28:04;;;;;;;0.10;0.10;;;;;;;12.27;77.02;102235.84;7365375;19;21017;-62
2023/11/22 07:30:32;;;;;;;0.10;0.10;;;;;;;12.32;77.13;102234.94;7358141;19;20037;-62
2023/11/22 07:32:59;;;;;;;0.10;0.10;;;;;;;12.18;77.34;102223.66;7360406;19;20014;-62
2023/11/22 07:35:25;;;;;;;0.10;0.10;;;;;;;12.29;77.01;102244.56;7361489;19;20002;-62
2023/11/22 07:37:51;;;;;;;0.10;0.10;;;;;;;12.25;77.29;102232.34;7364990;19;20034;-61
2023/11/22 07:40:19;;;;;;;0.15;0.15;;;;;;;12.31;77.36;102248.03;7338761;19;20007;-62
2023/11/22 07:42:44;;;;;;;0.10;0.10;;;;;;;12.30;77.08;102238.44;7367224;19;20078;-62
2023/11/22 07:45:11;;;;;;;0.10;0.10;;;;;;;12.28;77.44;102237.59;7361253;19;20105;-62
2023/11/22 07:47:39;;;;;;;0.10;0.10;;;;;;;12.29;77.26;102239.31;7362343;19;20011;-62
2023/11/22 07:50:08;;;;;;;0.10;0.10;;;;;;;12.30;77.29;102233.19;7369867;19;20027;-62
2023/11/22 07:52:34;;;;;;;0.10;0.10;;;;;;;12.23;77.43;102218.41;7366506;19;20018;-61
2023/11/22 07:54:59;;;;;;;0.10;0.10;;;;;;;12.12;77.27;102202.75;7368058;19;20028;-62
2023/11/22 07:57:25;;;;;;;0.10;0.10;;;;;;;12.25;77.51;102238.44;7360534;19;20015;-62
2023/11/22 07:59:54;;;;;;;0.10;0.10;;;;;;;12.26;77.82;102239.31;7359792;19;20006;-60
2023/11/22 08:02:20;;;;;;;0.10;0.10;;;;;;;12.24;77.51;102241.09;7359068;19;20026;-62
2023/11/22 08:04:48;;;;;;;0.10;0.10;;;;;;;12.26;77.49;102231.47;7357086;19;19998;-62
2023/11/22 08:07:13;;;;;;;;;;;;;;;12.31;77.32;102242.78;7363062;19;20021;-62
2023/11/22 08:09:38;;;;;;;0.10;0.10;;;;;;;12.27;77.47;102257.66;7354936;19;21006;-62
2023/11/22 08:12:04;;;;;;;0.15;0.15;;;;;;;12.09;77.33;102219.31;7364117;19;20022;-62
2023/11/22 08:14:30;;;;;;;0.10;0.10;;;;;;;12.29;77.52;102244.56;7358682;19;20585;-62
2023/11/22 08:16:56;;;;;;;0.10;0.10;;;;;;;12.18;77.48;102227.16;7369228;19;20103;-62
2023/11/22 08:19:23;;;;;;;0.10;0.10;;;;;;;12.29;77.45;102234.06;7357017;19;20027;-62
2023/11/22 08:21:49;;;;;;;0.10;0.10;;;;;;;12.30;77.71;102238.44;7359321;19;20034;-62
2023/11/22 08:24:14;;;;;;;0.10;0.10;;;;;;;12.18;77.72;102221.91;7358609;19;20014;-62
2023/11/22 08:26:40;;;;;;;0.10;0.10;;;;;;;12.33;77.83;102235.81;7362454;19;20010;-62
2023/11/22 08:29:07;;;;;;;0.10;0.10;;;;;;;12.34;77.38;102253.25;7358754;19;20042;-62
2023/11/22 08:31:34;;;;;;;0.10;0.10;;;;;;;12.24;77.77;102222.75;7353944;19;20022;-61
2023/11/22 08:33:59;;;;;;;0.10;0.10;;;;;;;12.36;77.83;102252.34;7359266;19;20034;-62
2023/11/22 08:36:25;;;;;;;0.10;0.10;;;;;;;12.39;77.62;102260.22;7361969;19;20546;-62
2023/11/22 08:38:50;;;;;;;0.10;0.10;;;;;;;12.35;77.85;102250.63;7350231;19;20003;-62
2023/11/22 08:41:17;;;;;;;0.10;0.10;;;;;;;12.25;77.49;102232.34;7344271;19;20429;-62
2023/11/22 08:43:42;;;;;;;0.10;0.10;;;;;;;12.39;77.94;102241.00;7352500;19;20090;-62
2023/11/22 08:46:08;;;;;;;0.03;0.03;;;;;;;12.43;77.76;102245.34;7358034;19;20118;-61
2023/11/22 08:48:34;;;;;;;0.10;0.10;;;;;;;12.25;78.00;102207.03;7354844;19;20022;-62
2023/11/22 08:51:01;;;;;;;0.10;0.10;;;;;;;12.45;78.13;102236.59;7359386;19;20992;-62
2023/11/22 08:53:26;;;;;;;0.10;0.10;;;;;;;12.46;77.92;102242.69;7363315;19;20010;-62
2023/11/22 08:55:54;;;;;;;0.10;0.10;;;;;;;12.46;77.68;102240.06;7358111;19;20018;-62
2023/11/22 08:58:20;;;;;;;0.10;0.10;;;;;;;12.45;77.75;102230.47;7364750;19;20015;-62
2023/11/22 09:00:45;;;;;;;0.10;0.10;;;;;;;12.48;77.76;102235.72;7363358;19;20070;-62
2023/11/22 09:03:12;;;;;;;0.10;0.10;;;;;;;12.41;77.94;102220.91;7321042;19;20021;-62
2023/11/22 09:05:40;;;;;;;0.10;0.10;;;;;;;12.50;77.67;102228.72;7361323;19;20026;-62
2023/11/22 09:08:06;;;;;;;0.10;0.10;;;;;;;12.53;78.03;102219.97;7359057;19;20082;-62
2023/11/22 09:10:32;;;;;;;0.10;0.10;;;;;;;12.51;78.00;102219.97;7359936;19;20399;-62
2023/11/22 09:12:59;;;;;;;0.05;0.05;;;;;;;12.53;77.95;102218.22;7357593;19;20010;-62
2023/11/22 09:15:29;;;;;;;0.10;0.10;;;;;;;12.54;78.36;102212.09;7358837;19;20006;-62
2023/11/22 09:17:55;;;;;;;0.10;0.10;;;;;;;12.56;78.09;102217.31;7362872;19;20041;-62
2023/11/22 09:20:21;;;;;;;0.10;0.10;;;;;;;12.57;77.82;102203.31;7355800;19;20822;-62
2023/11/22 09:22:48;;;;;;;0.10;0.10;;;;;;;12.53;78.10;102194.63;7360407;19;20048;-61
2023/11/22 09:25:21;;;;;;;0.10;0.10;;;;;;;12.59;78.21;102199.81;7359574;19;21038;-61
2023/11/22 09:27:51;;;;;;;0.10;0.10;;;;;;;12.59;78.44;102207.69;7367599;19;20025;-60
2023/11/22 09:30:32;;;;;;;0.10;0.10;;;;;;;12.61;77.98;102216.41;7367480;19;20090;-62
2023/11/22 09:33:02;;;;;;;0.10;0.10;;;;;;;12.51;78.15;102203.38;7370292;19;20057;-62
2023/11/22 09:35:35;;;;;;;0.10;0.10;;;;;;;12.59;78.20;102201.59;7361620;19;20022;-62
2023/11/22 09:38:11;;;;;;;0.10;0.10;;;;;;;12.66;78.48;102225.09;7367071;19;20019;-62
2023/11/22 09:40:47;;;;;;;0.03;0.03;;;;;;;12.67;78.24;102219.00;7363640;19;20033;-62
2023/11/22 09:43:17;;;;;;;0.10;0.10;;;;;;;12.68;78.27;102218.13;7374032;19;20021;-62
2023/11/22 09:45:44;;;;;;;0.13;0.13;;;;;;;12.69;78.32;102211.13;7370938;19;20652;-62
2023/11/22 09:48:20;;;;;;;0.10;0.10;;;;;;;12.72;78.33;102208.44;7356151;19;20006;-62
2023/11/22 09:51:05;;;;;;;0.10;0.10;;;;;;;12.75;78.11;102204.97;7365969;19;20018;-62
2023/11/22 09:53:38;;;;;;;0.10;0.10;;;;;;;12.70;78.71;102203.22;7359028;19;20010;-62
2023/11/22 09:56:06;;;;;;;0.10;0.10;;;;;;;12.70;78.37;102215.47;7368116;19;21788;-62
2023/11/22 09:58:36;;;;;;;0.10;0.10;;;;;;;12.65;78.34;102202.41;7365337;19;20014;-62
2023/11/22 10:01:03;;;;;;;0.08;0.08;;;;;;;12.78;78.27;102213.69;7367303;19;20014;-62
2023/11/22 10:03:29;;;;;;;0.10;0.10;;;;;;;12.69;78.53;102204.13;7362969;19;20003;-61
2023/11/22 10:05:59;;;;;;;0.10;0.10;;;;;;;12.73;78.53;102200.59;7367716;19;20014;-62
2023/11/22 10:08:29;;;;;;;0.10;0.10;;;;;;;12.87;78.67;102207.47;7366534;19;20007;-62
2023/11/22 10:10:56;;;;;;;0.10;0.10;;;;;;;12.88;78.31;102206.63;7363267;19;20038;-63
2023/11/22 10:13:22;;;;;;;0.10;0.10;;;;;;;12.91;78.61;102209.19;7366318;19;20089;-62
2023/11/22 10:15:52;;;;;;;0.10;0.10;;;;;;;12.93;78.69;102212.69;7365425;19;20034;-62
2023/11/22 10:18:18;;;;;;;0.10;0.10;;;;;;;12.96;78.38;102218.75;7366302;19;20470;-61
2023/11/22 10:20:46;;;;;;;0.10;0.10;;;;;;;12.96;78.75;102218.75;7364194;19;20078;-62
2023/11/22 10:23:13;;;;;;;0.10;0.10;;;;;;;13.02;78.45;102223.06;7365968;19;20363;-62
2023/11/22 10:25:52;;;;;;;0.10;0.10;;;;;;;12.97;78.76;102203.88;7369355;19;20015;-62
2023/11/22 10:28:22;;;;;;;0.10;0.10;;;;;;;13.01;78.32;102202.97;7371193;19;20027;-62
2023/11/22 10:30:51;;;;;;;0.00;0.00;;;;;;;13.09;78.28;102221.28;7368050;19;20010;-62
2023/11/22 10:33:17;;;;;;;0.10;0.10;;;;;;;13.13;78.24;102238.75;7361889;19;20014;-62
2023/11/22 10:35:48;;;;;;;0.10;0.10;;;;;;;13.17;78.19;102225.56;7371516;19;20018;-62
2023/11/22 10:38:14;;;;;;;0.10;0.10;;;;;;;13.16;78.67;102228.22;7361602;19;20018;-62
2023/11/22 10:40:40;;;;;;;0.10;0.10;;;;;;;13.17;78.68;102238.69;7361569;19;20026;-62
2023/11/22 10:43:07;;;;;;;0.10;0.10;;;;;;;13.02;78.29;102199.47;7363120;19;20035;-62
2023/11/22 10:45:34;;;;;;;0.10;0.10;;;;;;;13.22;78.46;102228.19;7365137;19;20018;-62
2023/11/22 10:48:03;;;;;;;0.10;0.10;;;;;;;13.27;78.21;102228.13;7365975;19;20740;-63
2023/11/22 10:50:28;;;;;;;0.15;0.15;;;;;;;13.25;78.14;102233.41;7363549;19;20014;-61
2023/11/22 10:53:00;;;;;;;0.10;0.10;;;;;;;13.27;78.53;102223.75;7359737;19;20023;-62
2023/11/22 10:55:32;;;;;;;0.10;0.10;;;;;;;13.32;78.66;102234.22;7360961;19;20010;-62
2023/11/22 10:58:06;;;;;;;0.10;0.10;;;;;;;13.20;78.20;102201.94;7363249;19;20025;-62
2023/11/22 11:00:32;;;;;;;0.10;0.10;;;;;;;13.37;78.32;102235.91;7354193;19;20668;-62
2023/11/22 11:03:19;;;;;;;0.10;0.10;;;;;;;13.33;78.32;102220.19;7363537;19;20022;-63
2023/11/22 11:05:57;;;;;;;0.10;0.10;;;;;;;13.44;78.18;102234.97;7364580;19;20006;-62
2023/11/22 11:08:27;;;;;;;0.10;0.10;;;;;;;13.46;78.27;102234.94;7364886;19;20018;-62
2023/11/22 11:10:55;;;;;;;0.15;0.15;;;;;;;13.41;78.15;102236.75;7356223;19;20494;-62
2023/11/22 11:13:21;;;;;;;0.10;0.10;;;;;;;13.49;78.52;102245.44;7363847;19;20021;-62
2023/11/22 11:15:47;;;;;;;0.17;0.17;;;;;;;13.50;78.17;102244.53;7361370;19;20010;-62
2023/11/22 11:18:15;;;;;;;0.20;0.20;;;;;;;13.43;77.87;102232.34;7363196;19;20420;-63
2023/11/22 11:20:54;;;;;;;;;;;;;;;13.59;78.01;102252.31;7361338;19;20766;-63
2023/11/22 11:23:22;;;;;;;0.10;0.10;;;;;;;13.55;77.77;102253.22;7362444;19;20642;-62